< < Back
Terminal Aerodrome Forecast


Current Version              Previous Versions:   1  2  3  4  5  6  7  8  9  

Terminal Aerodrome Forecast

902
FTUS42 KGSP 221732
TAFAND
TAF
KAND 221732Z 2218/2318 22007KT P6SM FEW070 SCT200
     FM222000 24005KT P6SM VCTS SCT060CB
     FM230100 25003KT P6SM SCT060 BKN200
     FM230600 00000KT 6SM BR SCT200
     FM231400 24007KT P6SM SCT060=



Latest METAR

508
SAUS70 KWBC 231300 RRC
MTRAND
METAR KAND 231256Z AUTO 29003KT 10SM CLR 27/23 A3002 RMK AO2 SLP155
T02670228


USA.gov is the U.S. government's official web portal to all federal, state and local government web resources and services.